Time;durP1;ratioP1;P1;durP2;ratioP2;P2;SDS_P1;SDS_P2;PMS_P1;PMS_P2;Temp;Humidity;BMP_temperature;BMP_pressure;BME280_temperature;BME280_humidity;BME280_pressure;Samples;Min_cycle;Max_cycle;Signal;HPM_P1;HPM_P2
2022/05/11 00:00:44;;;;;;;3.67;2.20;;;;;;;25.83;44.68;99556.22;4955614;29;20019;-87
2022/05/11 00:03:10;;;;;;;4.07;2.00;;;;;;;25.81;44.68;99555.50;4955262;29;20095;-86
2022/05/11 00:05:36;;;;;;;3.40;2.20;;;;;;;25.80;44.73;99551.97;4952675;29;20023;-88
2022/05/11 00:08:03;;;;;;;3.72;2.22;;;;;;;25.79;44.61;99549.41;4966235;29;20402;-86
2022/05/11 00:10:30;;;;;;;3.38;2.30;;;;;;;25.76;44.89;99545.16;4950050;29;20060;-86
2022/05/11 00:12:57;;;;;;;4.43;2.22;;;;;;;25.77;44.79;99546.03;4947376;29;20035;-86
2022/05/11 00:15:24;;;;;;;3.35;2.63;;;;;;;25.76;44.68;99539.00;4948655;29;20035;-87
2022/05/11 00:17:49;;;;;;;3.28;2.35;;;;;;;25.74;44.63;99536.44;4947295;29;20428;-86
2022/05/11 00:20:16;;;;;;;3.20;2.05;;;;;;;25.72;44.74;99536.56;4966433;28;20046;-87
2022/05/11 00:22:42;;;;;;;2.58;1.92;;;;;;;25.71;44.79;99532.19;4948311;29;20038;-88
2022/05/11 00:25:10;;;;;;;4.47;2.58;;;;;;;25.70;44.82;99532.31;4947553;29;20035;-88
2022/05/11 00:27:36;;;;;;;3.03;2.00;;;;;;;25.69;44.83;99526.13;4946886;29;20031;-86
2022/05/11 00:30:03;;;;;;;2.88;1.98;;;;;;;25.67;44.83;99519.19;4946700;29;20039;-88
2022/05/11 00:32:29;;;;;;;3.35;2.20;;;;;;;25.66;44.84;99522.84;4945746;29;20027;-88
2022/05/11 00:34:54;;;;;;;3.30;2.40;;;;;;;25.65;44.68;99516.66;4947146;29;20442;-87
2022/05/11 00:37:21;;;;;;;3.65;1.90;;;;;;;25.64;45.02;99520.28;4950189;29;20062;-87
2022/05/11 00:39:47;;;;;;;3.47;2.08;;;;;;;25.64;44.80;99516.75;4955585;29;20066;-90
2022/05/11 00:42:12;;;;;;;3.30;1.92;;;;;;;25.63;44.84;99515.06;4955956;29;20031;-87
2022/05/11 00:44:39;;;;;;;3.60;2.15;;;;;;;25.62;44.99;99521.38;4955623;29;20079;-89
2022/05/11 00:47:22;;;;;;;3.25;2.00;;;;;;;25.59;45.06;99514.47;4958895;29;20058;-91
2022/05/11 00:50:17;;;;;;;2.35;1.80;;;;;;;25.60;44.93;99516.16;4958098;29;20043;-88
2022/05/11 00:52:47;;;;;;;3.58;1.95;;;;;;;25.59;45.00;99519.81;4954294;29;20130;-88
2022/05/11 00:55:18;;;;;;;3.55;2.03;;;;;;;25.59;44.94;99517.13;4955293;29;20027;-88
2022/05/11 00:57:47;;;;;;;3.70;2.13;;;;;;;25.57;45.13;99513.75;4953033;29;20031;-88
2022/05/11 01:00:13;;;;;;;3.17;2.20;;;;;;;25.55;45.16;99510.34;4954237;29;20023;-88
2022/05/11 01:02:44;;;;;;;4.30;2.08;;;;;;;25.52;44.90;99506.06;4950455;29;20343;-89
2022/05/11 01:05:10;;;;;;;2.22;1.73;;;;;;;25.53;44.77;99506.91;4944340;29;20027;-87
2022/05/11 01:07:37;;;;;;;2.47;2.13;;;;;;;25.51;45.00;99499.00;4947116;29;20477;-87
2022/05/11 01:10:08;;;;;;;3.25;2.15;;;;;;;25.51;45.05;99498.19;4946996;29;20035;-88
2022/05/11 01:12:44;;;;;;;3.35;2.13;;;;;;;25.49;44.69;99495.63;4961157;28;20342;-86
2022/05/11 01:15:11;;;;;;;3.00;2.28;;;;;;;25.50;45.01;99496.47;4945197;29;20027;-88
2022/05/11 01:17:38;;;;;;;3.58;2.25;;;;;;;25.47;45.01;99490.41;4946869;29;20058;-87
2022/05/11 01:20:13;;;;;;;2.78;2.17;;;;;;;25.48;45.30;99489.41;4946831;29;20027;-87
2022/05/11 01:22:48;;;;;;;3.33;2.13;;;;;;;25.49;45.14;99495.63;4966141;29;20042;-88
2022/05/11 01:25:15;;;;;;;3.10;2.28;;;;;;;25.46;44.97;99491.38;4951749;29;20026;-89
2022/05/11 01:27:44;;;;;;;3.50;2.40;;;;;;;25.47;44.93;99479.72;4968395;28;20082;-88
2022/05/11 01:30:12;;;;;;;2.63;1.75;;;;;;;25.46;45.02;99480.69;4951136;29;20027;-87
2022/05/11 01:32:39;;;;;;;2.85;1.92;;;;;;;25.47;45.05;99476.22;4961069;28;20409;-87
2022/05/11 01:35:30;;;;;;;3.20;2.20;;;;;;;25.44;45.09;99474.63;4960474;28;20035;-88
2022/05/11 01:38:42;;;;;;;3.65;2.22;;;;;;;25.45;45.10;99473.66;4944268;29;20134;-88
2022/05/11 01:41:11;;;;;;;3.33;1.98;;;;;;;25.44;45.16;99471.09;4939232;29;20089;-88
2022/05/11 01:43:38;;;;;;;4.72;2.25;;;;;;;25.43;45.40;99472.91;4947367;29;20031;-87
2022/05/11 01:46:04;;;;;;;4.15;2.50;;;;;;;25.43;45.09;99470.22;4945372;29;20106;-86
2022/05/11 01:48:30;;;;;;;4.18;2.47;;;;;;;25.42;45.26;99468.53;4943357;29;20032;-86
2022/05/11 01:50:57;;;;;;;3.65;2.33;;;;;;;25.42;45.08;99467.72;4940224;29;20043;-88
2022/05/11 01:53:23;;;;;;;3.08;2.00;;;;;;;25.40;44.98;99465.16;4940362;29;20027;-86
2022/05/11 01:55:49;;;;;;;3.17;2.22;;;;;;;25.39;45.00;99462.59;4940612;29;20042;-87
2022/05/11 01:58:15;;;;;;;6.00;2.60;;;;;;;25.38;45.41;99461.78;4943588;29;20031;-90
2022/05/11 02:00:43;;;;;;;2.90;2.00;;;;;;;25.37;45.35;99462.72;4945694;29;20106;-89
2022/05/11 02:03:09;;;;;;;3.25;2.15;;;;;;;25.39;45.42;99457.25;4949908;29;20127;-90
2022/05/11 02:08:27;;;;;;;3.38;2.22;;;;;;;25.37;45.42;99464.56;5122630;27;20381;-88
2022/05/11 02:10:53;;;;;;;3.40;2.20;;;;;;;25.36;45.56;99471.72;5122384;28;20542;-88
2022/05/11 02:13:19;;;;;;;2.38;1.95;;;;;;;25.34;45.46;99469.16;5135955;28;20024;-88
2022/05/11 02:15:44;;;;;;;4.15;2.10;;;;;;;25.35;45.26;99470.00;5140218;28;20020;-89
2022/05/11 02:18:10;;;;;;;4.03;2.20;;;;;;;25.33;45.44;99466.63;5125633;28;20369;-89
2022/05/11 02:20:35;;;;;;;3.10;2.25;;;;;;;25.32;45.30;99472.91;5140723;28;20028;-88
2022/05/11 02:23:01;;;;;;;3.28;2.08;;;;;;;25.31;45.47;99471.22;5139540;28;20023;-90
2022/05/11 02:25:27;;;;;;;3.63;2.30;;;;;;;25.31;45.34;99465.88;5123993;28;20030;-89
2022/05/11 02:27:53;;;;;;;3.45;2.22;;;;;;;25.29;45.54;99468.69;5124120;28;20075;-90
2022/05/11 02:30:23;;;;;;;2.88;2.00;;;;;;;25.29;45.47;99468.69;5123527;28;20035;-86
2022/05/11 02:32:48;;;;;;;2.78;2.05;;;;;;;25.28;45.30;99463.47;5131529;28;20023;-87
2022/05/11 02:35:17;;;;;;;4.88;2.00;;;;;;;25.28;45.21;99466.97;5131272;28;20363;-87
2022/05/11 02:37:47;;;;;;;5.40;2.35;;;;;;;25.27;45.50;99464.44;5116859;28;20015;-86
2022/05/11 02:40:16;;;;;;;3.72;2.30;;;;;;;25.26;45.56;99468.06;5119447;28;20030;-86
2022/05/11 02:42:41;;;;;;;3.10;2.13;;;;;;;25.25;45.48;99461.03;5115404;28;20107;-87
2022/05/11 02:45:08;;;;;;;3.25;2.35;;;;;;;25.25;45.45;99466.38;5130613;28;20052;-87
2022/05/11 02:47:34;;;;;;;2.90;2.08;;;;;;;25.23;45.53;99468.31;5130910;28;20020;-87
2022/05/11 02:49:59;;;;;;;3.03;2.17;;;;;;;25.22;45.76;99467.47;5131285;28;20334;-88
2022/05/11 02:52:25;;;;;;;3.20;1.95;;;;;;;25.20;45.42;99464.94;5131112;28;20338;-86
2022/05/11 02:54:50;;;;;;;3.30;2.20;;;;;;;25.22;45.79;99461.28;5114387;28;20525;-86
2022/05/11 02:57:17;;;;;;;3.30;1.95;;;;;;;25.19;45.71;99457.03;5117400;28;20020;-87
2022/05/11 02:59:44;;;;;;;3.40;2.38;;;;;;;25.18;45.64;99461.50;5123283;28;20038;-89
2022/05/11 03:02:09;;;;;;;3.33;2.00;;;;;;;25.19;45.73;99451.69;5112125;28;20028;-89
2022/05/11 03:04:35;;;;;;;3.42;2.20;;;;;;;25.18;45.61;99450.84;5119745;28;20084;-89
2022/05/11 03:07:01;;;;;;;2.90;2.30;;;;;;;25.16;45.59;99452.78;5115737;28;20204;-86
2022/05/11 03:09:26;;;;;;;3.05;2.13;;;;;;;25.18;45.72;99456.19;5138071;28;20342;-87
2022/05/11 03:11:52;;;;;;;2.55;1.77;;;;;;;25.17;45.58;99458.97;5137222;28;20023;-87
2022/05/11 03:14:21;;;;;;;3.13;2.20;;;;;;;25.15;45.70;99461.78;5120223;28;20020;-87
2022/05/11 03:16:47;;;;;;;3.83;2.20;;;;;;;25.15;45.67;99456.44;5119055;28;20024;-86
2022/05/11 03:19:13;;;;;;;3.85;2.05;;;;;;;25.14;45.60;99460.03;5107866;28;20099;-87
2022/05/11 03:21:39;;;;;;;3.20;1.95;;;;;;;25.10;45.76;99450.59;5122152;28;20056;-86
2022/05/11 03:24:05;;;;;;;2.63;2.00;;;;;;;25.11;45.70;99454.97;5123326;28;20035;-87
2022/05/11 03:26:34;;;;;;;2.67;1.80;;;;;;;25.11;45.40;99457.63;5107660;28;20456;-88
2022/05/11 03:29:00;;;;;;;3.03;2.10;;;;;;;25.09;45.96;99467.59;5107177;28;20032;-88
2022/05/11 03:31:28;;;;;;;4.18;2.28;;;;;;;25.07;45.60;99459.69;5106461;28;20028;-87
2022/05/11 03:36:40;;;;;;;3.70;2.20;;;;;;;25.06;45.65;99462.47;5108407;28;20034;-86
2022/05/11 03:39:07;;;;;;;3.90;2.38;;;;;;;25.04;45.68;99462.59;5131957;28;20048;-89
2022/05/11 03:41:37;;;;;;;3.90;2.20;;;;;;;24.99;45.87;99454.09;5112348;28;20024;-88
2022/05/11 03:44:06;;;;;;;3.40;2.17;;;;;;;24.98;45.64;99460.41;5127241;28;20115;-87
2022/05/11 03:46:35;;;;;;;3.13;2.30;;;;;;;24.98;45.87;99457.75;5112332;28;20024;-89
2022/05/11 03:49:03;;;;;;;4.47;2.40;;;;;;;24.96;45.83;99454.34;5089284;28;20094;-88
2022/05/11 03:51:28;;;;;;;2.90;2.20;;;;;;;24.98;45.85;99455.06;5104500;28;20081;-89
2022/05/11 03:53:54;;;;;;;2.60;1.88;;;;;;;24.94;45.54;99453.63;5122474;28;20020;-89
2022/05/11 03:56:20;;;;;;;3.25;2.13;;;;;;;24.90;45.72;99458.34;5104551;28;20058;-86
2022/05/11 03:58:48;;;;;;;2.95;2.22;;;;;;;24.90;45.83;99453.00;5124365;28;20032;-89
2022/05/11 04:01:15;;;;;;;3.00;1.92;;;;;;;24.91;45.98;99454.72;5122627;28;20048;-87
2022/05/11 04:03:51;;;;;;;3.40;2.30;;;;;;;24.92;45.65;99456.41;5104155;28;20331;-86
2022/05/11 04:06:17;;;;;;;2.92;2.13;;;;;;;24.91;45.91;99454.72;5117297;28;20087;-88
2022/05/11 04:08:43;;;;;;;3.55;2.25;;;;;;;24.88;46.01;99452.28;5101279;28;20123;-88
2022/05/11 04:11:09;;;;;;;3.35;2.20;;;;;;;24.88;45.65;99449.59;5121794;28;20048;-88
2022/05/11 04:13:35;;;;;;;4.05;2.50;;;;;;;24.86;45.81;99451.56;5106794;28;20016;-88
2022/05/11 04:16:00;;;;;;;3.30;2.30;;;;;;;24.87;46.03;99460.41;5125318;28;20024;-89
2022/05/11 04:18:26;;;;;;;2.92;2.10;;;;;;;24.86;45.86;99456.03;5122895;28;20054;-87
2022/05/11 04:20:52;;;;;;;2.28;1.90;;;;;;;24.83;45.99;99457.13;5126095;28;20110;-89
2022/05/11 04:23:17;;;;;;;2.78;1.90;;;;;;;24.83;45.99;99453.63;5109983;28;20473;-90
2022/05/11 04:25:43;;;;;;;3.58;2.50;;;;;;;24.80;45.86;99457.34;5107277;28;20323;-89
2022/05/11 04:28:11;;;;;;;3.33;2.30;;;;;;;24.80;45.78;99452.00;5124826;28;20020;-88
2022/05/11 04:30:38;;;;;;;3.28;2.42;;;;;;;24.78;46.12;99453.91;5108265;28;20027;-89
2022/05/11 04:33:08;;;;;;;2.90;2.00;;;;;;;24.76;45.89;99454.06;5109813;28;20020;-89
2022/05/11 04:35:34;;;;;;;3.38;2.30;;;;;;;24.76;46.01;99454.06;5111455;28;20031;-90
2022/05/11 04:38:05;;;;;;;4.32;2.28;;;;;;;24.76;46.16;99458.53;5128157;28;20007;-89
2022/05/11 04:40:31;;;;;;;3.05;2.25;;;;;;;24.73;45.96;99458.75;5120858;28;20020;-90
2022/05/11 04:42:57;;;;;;;3.10;2.40;;;;;;;24.72;46.22;99457.94;5103518;28;20450;-88
2022/05/11 04:45:23;;;;;;;3.13;2.22;;;;;;;24.75;46.26;99467.50;5104664;28;20038;-89
2022/05/11 04:47:49;;;;;;;7.78;2.20;;;;;;;24.72;46.04;99460.59;5106091;28;20429;-90
2022/05/11 04:50:16;;;;;;;2.97;2.10;;;;;;;24.71;46.09;99463.38;5117441;28;20028;-87
2022/05/11 04:52:43;;;;;;;3.00;2.22;;;;;;;24.71;46.22;99463.38;5118756;28;20039;-89
2022/05/11 04:55:09;;;;;;;4.13;2.53;;;;;;;24.71;45.99;99463.38;5117052;28;20028;-89
2022/05/11 04:57:36;;;;;;;2.88;2.15;;;;;;;24.69;46.23;99465.31;5102497;28;20011;-88
2022/05/11 05:00:09;;;;;;;3.67;2.45;;;;;;;24.66;46.19;99461.91;5115858;28;20115;-87
2022/05/11 05:02:35;;;;;;;3.03;2.08;;;;;;;24.66;46.33;99469.91;5099189;28;20350;-90
2022/05/11 05:05:05;;;;;;;3.85;2.20;;;;;;;24.66;46.32;99472.56;5116501;28;20034;-89
2022/05/11 05:07:34;;;;;;;3.47;2.30;;;;;;;24.67;46.39;99479.63;5115311;28;20431;-90
2022/05/11 05:10:01;;;;;;;4.60;2.28;;;;;;;24.65;46.42;99473.53;5115082;28;20031;-90
2022/05/11 05:12:27;;;;;;;3.70;2.30;;;;;;;24.66;46.36;99479.75;5098385;28;20081;-90
2022/05/11 05:14:53;;;;;;;5.63;2.53;;;;;;;24.66;46.62;99475.25;5102594;28;20028;-87
2022/05/11 05:17:19;;;;;;;4.22;2.38;;;;;;;24.65;46.40;99476.22;5103696;28;20024;-85
2022/05/11 05:19:45;;;;;;;3.88;2.55;;;;;;;24.65;46.56;99470.88;5098948;28;20028;-88
2022/05/11 05:22:11;;;;;;;5.18;2.47;;;;;;;24.63;46.52;99478.16;5101119;28;20024;-85
2022/05/11 05:24:37;;;;;;;3.78;2.42;;;;;;;24.64;46.45;99485.19;5112590;28;20028;-89
2022/05/11 05:27:03;;;;;;;4.30;2.08;;;;;;;24.64;46.64;99487.00;5102574;28;20016;-86
2022/05/11 05:32:14;;;;;;;4.07;2.38;;;;;;;24.64;46.85;99484.31;5098936;28;20039;-88
2022/05/11 05:34:40;;;;;;;4.72;2.33;;;;;;;24.64;46.62;99479.84;5098516;28;20024;-87
2022/05/11 05:37:05;;;;;;;4.60;2.40;;;;;;;24.62;46.52;99479.13;5101817;28;20054;-89
2022/05/11 05:39:31;;;;;;;3.85;2.15;;;;;;;24.62;46.86;99487.13;5107867;28;20032;-85
2022/05/11 05:42:01;;;;;;;4.72;2.45;;;;;;;24.62;46.62;99483.59;5097518;28;20027;-89
2022/05/11 05:44:31;;;;;;;4.15;2.22;;;;;;;24.62;46.89;99489.81;5102132;28;20028;-89
2022/05/11 05:47:05;;;;;;;3.60;2.50;;;;;;;24.61;46.63;99488.09;5101570;28;20028;-87
2022/05/11 05:49:31;;;;;;;5.60;2.42;;;;;;;24.62;46.76;99487.13;5101122;28;20016;-87
2022/05/11 05:52:01;;;;;;;4.05;2.30;;;;;;;24.62;46.78;99492.47;5102802;28;20030;-87
2022/05/11 05:54:30;;;;;;;4.32;2.58;;;;;;;24.62;46.70;99492.47;5097473;28;20023;-88
2022/05/11 05:56:57;;;;;;;5.00;3.00;;;;;;;24.60;46.67;99494.38;5098312;28;20097;-88
2022/05/11 05:59:23;;;;;;;3.67;2.65;;;;;;;24.60;46.42;99489.03;5095680;28;20472;-87
2022/05/11 06:01:49;;;;;;;5.85;2.47;;;;;;;24.60;46.73;99488.22;5097872;28;20061;-89
2022/05/11 06:04:15;;;;;;;5.20;2.70;;;;;;;24.60;46.65;99480.22;5095919;28;20469;-87
2022/05/11 06:06:41;;;;;;;4.57;2.53;;;;;;;24.60;46.46;99489.03;5095749;28;20127;-86
2022/05/11 06:09:06;;;;;;;4.97;2.42;;;;;;;24.57;46.33;99494.63;5096275;28;20457;-87
2022/05/11 06:11:32;;;;;;;6.40;2.47;;;;;;;24.58;46.61;99493.66;5097146;28;20373;-87
2022/05/11 06:13:59;;;;;;;6.15;3.03;;;;;;;24.59;46.61;99498.03;5096423;28;20031;-87
2022/05/11 06:16:25;;;;;;;4.10;2.47;;;;;;;24.58;46.37;99501.66;5097880;28;20028;-87
2022/05/11 06:18:51;;;;;;;3.85;2.58;;;;;;;24.59;46.45;99507.88;5097077;28;20084;-86
2022/05/11 06:21:17;;;;;;;5.60;2.97;;;;;;;24.59;46.56;99505.19;5097452;28;20474;-87
2022/05/11 06:23:44;;;;;;;5.47;2.70;;;;;;;24.59;46.56;99503.34;5099440;28;20465;-89
2022/05/11 06:26:10;;;;;;;4.65;2.65;;;;;;;24.60;46.55;99499.72;5098661;28;20043;-88
2022/05/11 06:28:37;;;;;;;6.65;2.90;;;;;;;24.62;46.60;99500.47;5098524;28;20024;-89
2022/05/11 06:31:03;;;;;;;5.82;3.13;;;;;;;24.63;46.47;99506.63;5099137;28;20031;-88
2022/05/11 06:33:28;;;;;;;4.65;2.40;;;;;;;24.63;46.32;99502.16;5099004;28;20028;-86
2022/05/11 06:35:55;;;;;;;5.28;3.28;;;;;;;24.66;46.43;99495.75;5098064;28;20024;-86
2022/05/11 06:38:20;;;;;;;3.35;2.55;;;;;;;24.66;46.17;99493.09;5092002;28;20024;-88
2022/05/11 06:40:46;;;;;;;4.13;2.65;;;;;;;24.67;46.24;99484.97;5085733;28;20541;-87
2022/05/11 06:43:12;;;;;;;5.28;2.78;;;;;;;24.69;46.29;99486.66;5100139;28;20035;-86
2022/05/11 06:45:38;;;;;;;5.25;3.10;;;;;;;24.67;46.36;99484.97;5099351;28;20020;-87
2022/05/11 06:48:04;;;;;;;4.75;2.92;;;;;;;24.70;46.49;99488.34;5099871;28;20024;-87
2022/05/11 06:50:30;;;;;;;4.90;2.88;;;;;;;24.73;46.34;99485.44;5100017;28;20097;-87
2022/05/11 06:52:56;;;;;;;5.65;3.00;;;;;;;24.72;46.34;99487.28;5103761;28;20016;-89
2022/05/11 07:00:50;;;;;;;4.90;2.85;;;;;;;24.80;46.14;99489.38;5119861;28;20058;-92
2022/05/11 07:03:18;;;;;;;6.63;3.25;;;;;;;24.85;46.16;99487.22;5109689;28;20024;-90
2022/05/11 07:05:47;;;;;;;6.30;3.17;;;;;;;24.86;46.29;99486.25;5110598;28;20028;-92
2022/05/11 07:08:12;;;;;;;3.95;2.78;;;;;;;24.85;46.17;99484.56;5110151;28;20050;-91
2022/05/11 07:10:42;;;;;;;6.13;3.22;;;;;;;24.84;46.35;99480.16;5105704;28;20503;-87
2022/05/11 07:13:09;;;;;;;4.00;2.70;;;;;;;24.87;45.97;99479.06;5099964;28;20020;-85
2022/05/11 07:15:34;;;;;;;4.05;2.50;;;;;;;24.89;46.19;99482.50;5101359;28;20020;-86
2022/05/11 07:18:01;;;;;;;4.63;2.58;;;;;;;24.87;46.01;99487.94;5099135;28;20016;-83
2022/05/11 07:20:36;;;;;;;3.30;2.35;;;;;;;24.87;46.29;99489.75;5098099;28;20377;-83
2022/05/11 07:23:03;;;;;;;4.70;2.70;;;;;;;24.88;45.96;99481.63;5097623;28;20038;-87
2022/05/11 07:25:30;;;;;;;4.35;2.90;;;;;;;24.92;46.00;99482.25;5099142;28;20024;-86
2022/05/11 07:27:57;;;;;;;4.15;2.67;;;;;;;24.88;46.15;99484.31;5100856;28;20043;-86
2022/05/11 07:30:32;;;;;;;3.95;2.55;;;;;;;24.89;46.08;99494.00;5099203;28;20107;-88
2022/05/11 07:33:00;;;;;;;3.87;2.60;;;;;;;24.88;45.99;99481.63;5100859;28;20027;-88
2022/05/11 07:35:26;;;;;;;3.83;2.65;;;;;;;24.88;45.93;99491.44;5103139;28;20071;-89
2022/05/11 07:37:52;;;;;;;3.72;2.50;;;;;;;24.87;46.22;99493.28;5099303;28;20020;-85
2022/05/11 07:40:19;;;;;;;4.97;2.60;;;;;;;24.88;45.88;99497.66;5100287;28;20095;-87
2022/05/11 07:42:45;;;;;;;3.85;2.30;;;;;;;24.88;46.05;99500.31;5099473;28;20028;-87
2022/05/11 07:45:13;;;;;;;5.07;2.55;;;;;;;24.88;46.00;99502.97;5101390;28;20015;-86
2022/05/11 07:47:39;;;;;;;4.50;2.80;;;;;;;24.90;46.06;99501.03;5102062;28;20449;-88
2022/05/11 07:50:06;;;;;;;4.10;2.80;;;;;;;24.91;45.94;99497.44;5103332;28;20036;-87
2022/05/11 07:52:32;;;;;;;4.20;2.65;;;;;;;24.91;46.04;99497.44;5102199;28;20043;-87
2022/05/11 07:54:57;;;;;;;3.80;2.60;;;;;;;24.94;46.12;99499.00;5103282;28;20020;-87
2022/05/11 08:00:09;;;;;;;3.67;2.53;;;;;;;24.98;45.76;99491.59;5104206;28;20070;-86
2022/05/11 08:02:36;;;;;;;5.30;2.70;;;;;;;24.99;45.88;99495.97;5104775;28;20448;-88
2022/05/11 08:05:11;;;;;;;3.72;2.35;;;;;;;24.99;45.49;99493.31;5102453;28;20111;-87
2022/05/11 08:08:03;;;;;;;4.25;2.60;;;;;;;25.01;45.62;99486.00;5101461;28;20067;-86
2022/05/11 08:14:06;;;;;;;5.03;2.40;;;;;;;25.05;45.50;99487.47;5102611;28;20047;-88
2022/05/11 08:20:42;;;;;;;3.35;2.05;;;;;;;25.09;45.56;99483.63;5101442;28;20046;-86
2022/05/11 08:23:09;;;;;;;4.18;2.33;;;;;;;25.12;45.68;99488.69;5102865;28;20401;-87
2022/05/11 08:25:38;;;;;;;4.78;2.28;;;;;;;25.14;45.49;99485.91;5102272;28;20035;-86
2022/05/11 08:28:19;;;;;;;3.70;2.50;;;;;;;25.13;45.33;99487.72;5104075;28;20055;-90
2022/05/11 08:33:41;;;;;;;4.93;3.13;;;;;;;25.17;45.34;99486.53;5091873;28;20343;-89
2022/05/11 08:36:27;;;;;;;5.80;2.60;;;;;;;25.20;45.40;99474.75;5079450;28;20024;-88
2022/05/11 08:38:56;;;;;;;4.03;2.28;;;;;;;25.22;45.38;99471.97;5078840;28;20063;-88
2022/05/11 08:41:34;;;;;;;3.28;2.22;;;;;;;25.23;45.44;99471.00;5079980;28;20036;-89
2022/05/11 08:44:09;;;;;;;4.60;2.95;;;;;;;25.25;45.36;99477.03;5082006;28;20039;-89
2022/05/11 08:46:43;;;;;;;4.78;2.42;;;;;;;25.25;45.16;99469.91;5102664;28;20408;-88
2022/05/11 08:49:18;;;;;;;5.97;2.60;;;;;;;25.27;45.44;99475.97;5102147;28;20031;-88
2022/05/11 08:51:56;;;;;;;3.85;2.30;;;;;;;25.29;45.50;99468.69;5106937;28;20088;-87
2022/05/11 08:54:34;;;;;;;3.72;2.22;;;;;;;25.30;45.30;99474.88;5100376;28;20024;-90
2022/05/11 08:57:04;;;;;;;5.15;2.17;;;;;;;25.32;45.38;99480.94;5106891;28;20473;-89
2022/05/11 08:59:31;;;;;;;6.07;2.60;;;;;;;25.35;45.39;99478.03;5109486;28;20032;-88
2022/05/11 09:02:36;;;;;;;5.22;2.38;;;;;;;25.35;45.14;99480.69;5110621;28;20069;-88
2022/05/11 09:05:03;;;;;;;3.90;2.30;;;;;;;25.36;45.12;99479.72;5102408;28;20100;-88
2022/05/11 09:07:34;;;;;;;4.38;2.20;;;;;;;25.38;44.95;99484.94;5110495;28;20043;-89
2022/05/11 09:09:59;;;;;;;6.82;2.45;;;;;;;25.40;45.09;99480.31;5112381;28;20028;-90
2022/05/11 09:12:26;;;;;;;3.88;2.28;;;;;;;25.41;45.00;99482.88;5112710;28;20044;-89
2022/05/11 09:14:55;;;;;;;3.65;2.38;;;;;;;25.41;44.99;99485.53;5113326;28;20386;-89
2022/05/11 09:17:40;;;;;;;3.92;2.40;;;;;;;25.45;44.91;99486.16;5114382;28;20000;-90
2022/05/11 09:23:50;;;;;;;3.78;2.42;;;;;;;25.47;44.84;99490.41;5116510;28;20035;-90
2022/05/11 09:30:23;;;;;;;4.60;2.30;;;;;;;25.51;44.88;99487.50;5114644;28;20047;-89
2022/05/11 09:32:53;;;;;;;4.22;1.95;;;;;;;25.51;44.85;99485.66;5112960;28;20040;-88
2022/05/11 09:35:36;;;;;;;4.70;2.38;;;;;;;25.54;44.87;99492.59;5115363;28;20031;-88
2022/05/11 09:38:10;;;;;;;3.30;2.30;;;;;;;25.55;44.97;99494.31;5114709;28;20032;-89
2022/05/11 09:40:54;;;;;;;4.38;2.28;;;;;;;25.57;45.10;99503.06;5113700;28;20095;-89
2022/05/11 09:43:53;;;;;;;4.13;1.98;;;;;;;25.59;45.06;99498.44;5114852;28;20032;-89
2022/05/11 09:46:35;;;;;;;3.60;2.25;;;;;;;25.61;45.05;99501.81;5112239;28;20039;-87
2022/05/11 09:49:19;;;;;;;5.57;2.25;;;;;;;25.62;44.85;99500.88;5115699;28;20050;-88
2022/05/11 09:51:53;;;;;;;4.55;2.25;;;;;;;25.64;44.96;99498.91;5111337;28;20020;-89
2022/05/11 09:54:28;;;;;;;3.63;1.80;;;;;;;25.66;44.84;99506.81;5102783;28;20039;-83
2022/05/11 09:56:58;;;;;;;3.67;2.03;;;;;;;25.67;45.08;99504.00;5101818;28;20024;-87
2022/05/11 09:59:37;;;;;;;3.90;2.28;;;;;;;25.69;44.75;99507.41;5112477;28;20012;-91
2022/05/11 10:02:25;;;;;;;3.55;2.10;;;;;;;25.71;45.05;99499.28;5105019;28;20465;-85
2022/05/11 10:05:24;;;;;;;3.22;2.13;;;;;;;25.73;45.05;99503.50;5099068;28;20028;-85
2022/05/11 10:08:01;;;;;;;4.88;2.28;;;;;;;25.74;44.94;99491.88;5097907;28;20055;-87
2022/05/11 10:10:34;;;;;;;3.33;2.25;;;;;;;25.75;45.12;99490.03;5098250;28;20066;-86
2022/05/11 10:13:28;;;;;;;3.72;2.13;;;;;;;25.78;44.84;99495.13;5099512;28;20024;-88
2022/05/11 10:21:58;;;;;;;3.88;2.22;;;;;;;25.83;44.94;99502.78;5107429;28;20415;-91
2022/05/11 10:24:55;;;;;;;3.38;1.77;;;;;;;25.85;44.97;99495.47;5108817;28;20054;-91
2022/05/11 10:27:27;;;;;;;3.03;2.15;;;;;;;25.86;44.83;99497.19;5103099;28;20032;-87
2022/05/11 10:30:08;;;;;;;4.10;2.13;;;;;;;25.88;44.96;99495.22;5118330;28;20034;-91
2022/05/11 10:33:04;;;;;;;3.63;1.75;;;;;;;25.90;45.13;99498.63;5103590;28;20046;-87
2022/05/11 10:36:07;;;;;;;3.83;1.90;;;;;;;25.91;44.89;99494.13;5084816;28;20062;-86
2022/05/11 10:38:40;;;;;;;4.07;2.00;;;;;;;25.93;45.14;99486.84;5086728;28;20473;-86
2022/05/11 10:41:21;;;;;;;3.63;2.00;;;;;;;25.93;45.00;99487.69;5097931;28;20020;-85
2022/05/11 10:44:08;;;;;;;3.17;2.00;;;;;;;25.96;45.01;99491.94;5107796;28;20078;-86
2022/05/11 10:46:42;;;;;;;3.47;2.20;;;;;;;25.96;45.00;99482.06;5097792;28;20020;-86
2022/05/11 10:49:20;;;;;;;3.40;1.98;;;;;;;25.98;44.82;99485.50;5098675;28;20051;-87
2022/05/11 10:51:59;;;;;;;3.28;1.67;;;;;;;26.00;44.91;99483.53;5077898;28;20063;-89
2022/05/11 10:54:53;;;;;;;3.85;2.10;;;;;;;26.03;44.92;99482.44;5104941;28;20032;-87
2022/05/11 10:57:23;;;;;;;3.17;2.05;;;;;;;26.05;45.01;99479.63;5094712;28;20067;-87
2022/05/11 11:00:04;;;;;;;3.47;1.92;;;;;;;26.07;45.08;99469.66;5083588;28;20043;-86
2022/05/11 11:02:57;;;;;;;3.60;2.25;;;;;;;26.08;45.05;99476.69;5109218;28;20044;-86
2022/05/11 11:05:23;;;;;;;4.20;2.08;;;;;;;26.10;44.91;99469.41;5085096;28;20031;-87
2022/05/11 11:07:52;;;;;;;4.68;2.38;;;;;;;26.12;44.78;99464.78;5101597;28;20382;-86
2022/05/11 11:10:36;;;;;;;2.85;1.77;;;;;;;26.13;45.08;99455.78;5110541;28;20032;-85
2022/05/11 11:13:32;;;;;;;3.45;1.83;;;;;;;26.16;44.95;99457.34;5109290;28;20038;-86
2022/05/11 11:16:00;;;;;;;3.42;2.22;;;;;;;26.16;45.13;99450.19;5090586;28;20120;-87
2022/05/11 11:18:33;;;;;;;4.10;2.50;;;;;;;26.18;44.95;99437.53;5096158;28;20093;-85
2022/05/11 11:21:02;;;;;;;4.78;2.00;;;;;;;26.21;45.04;99447.13;5090894;28;20360;-86
2022/05/11 11:24:10;;;;;;;4.07;2.38;;;;;;;26.21;44.83;99442.63;5096245;28;20086;-85
2022/05/11 11:26:51;;;;;;;4.13;2.10;;;;;;;26.24;45.18;99441.56;5079777;28;20028;-88
2022/05/11 11:29:20;;;;;;;3.00;1.90;;;;;;;26.24;44.83;99437.03;5099268;28;20392;-85
2022/05/11 11:32:04;;;;;;;3.45;2.00;;;;;;;26.27;44.98;99435.94;5103602;28;20028;-86
2022/05/11 11:34:32;;;;;;;3.40;2.00;;;;;;;26.27;44.87;99431.44;5096027;28;20043;-86
2022/05/11 11:37:24;;;;;;;3.58;2.00;;;;;;;26.29;45.18;99422.44;5088188;28;20050;-88
2022/05/11 11:39:59;;;;;;;4.43;2.30;;;;;;;26.32;44.93;99417.69;5083838;28;20055;-87
2022/05/11 11:42:39;;;;;;;4.25;2.60;;;;;;;26.34;44.83;99430.94;5082218;28;20119;-87
2022/05/11 11:45:28;;;;;;;4.05;2.33;;;;;;;26.36;44.78;99418.25;5116282;28;20131;-89
2022/05/11 11:48:04;;;;;;;5.72;3.03;;;;;;;26.38;44.77;99416.28;5094815;28;20061;-86
2022/05/11 11:50:50;;;;;;;5.65;2.60;;;;;;;26.39;44.82;99418.03;5086414;28;20051;-86
2022/05/11 11:53:25;;;;;;;4.55;2.38;;;;;;;26.41;45.00;99410.69;5098619;28;20023;-86
2022/05/11 11:55:51;;;;;;;3.72;1.98;;;;;;;26.42;44.95;99401.69;5102211;28;20036;-87
2022/05/11 11:58:25;;;;;;;4.80;2.33;;;;;;;26.42;44.60;99407.03;5099258;28;20028;-85
2022/05/11 12:01:10;;;;;;;3.30;2.33;;;;;;;26.45;44.75;99396.09;5096399;28;20093;-84
2022/05/11 12:16:13;;;;;;;4.72;2.70;;;;;;;26.43;44.59;99398.03;5097257;28;20423;-88
2022/05/11 12:18:44;;;;;;;3.03;2.20;;;;;;;26.44;43.96;99399.72;5097782;28;20369;-85
2022/05/11 12:21:34;;;;;;;4.53;2.72;;;;;;;26.44;44.34;99389.03;5096460;28;20040;-86
2022/05/11 12:24:18;;;;;;;5.00;2.78;;;;;;;26.47;44.07;99378.06;5097343;28;20058;-85
2022/05/11 12:26:54;;;;;;;3.92;2.50;;;;;;;26.51;44.30;99379.50;5095697;28;20020;-85
2022/05/11 12:32:08;;;;;;;4.72;2.58;;;;;;;26.53;43.65;99372.19;5097542;28;20109;-85
2022/05/11 12:34:44;;;;;;;4.82;2.30;;;;;;;26.56;44.19;99370.22;5096544;28;20038;-86
2022/05/11 12:37:22;;;;;;;4.20;2.40;;;;;;;26.58;44.26;99368.28;5102839;28;20035;-87
2022/05/11 12:39:54;;;;;;;4.75;2.60;;;;;;;26.60;44.05;99372.53;5106972;28;20281;-89
2022/05/11 12:42:28;;;;;;;4.22;2.60;;;;;;;26.58;43.89;99366.44;5107190;28;20118;-89
2022/05/11 12:44:54;;;;;;;3.55;2.35;;;;;;;26.59;43.62;99367.28;5105408;28;20038;-88
2022/05/11 12:47:20;;;;;;;5.47;2.85;;;;;;;26.59;43.24;99369.97;5103245;28;20031;-87